Terminal Aerodrome Forecast
Issued by NWS

Home | Current Version | Previous Version | Graphics & Text | Print | Product List | Glossary On
Versions: 1 2 3 4 5 6 7 8 9 10 11 12 13 14
000
FTUS45 KGGW 241700
TAFSDY
TAF
KSDY 241720Z 2418/2518 27020G25KT P6SM VCSH BKN090
     FM242100 30020G25KT P6SM BKN100
     FM250300 30015KT P6SM SCT050 BKN100
      AMD LTD TO CLD VIS AND WIND=

USA.gov is the U.S. government's official web portal to all federal, state and local government web resources and services.